Impacts TAF Board INFO
FOR SITUATIONAL AWARENESS. NOT TO BE USED FOR FLIGHT PLANNING PURPOSES.
IDs:

KSLC - Salt Lake City Intl, UT, US

Issued at 2334 UTC 17 Aug 2018
Updated at 0127 UTC 18 Aug 2018
Potential Impact None Slight Moderate High
Time<<18/14Z 18/15Z 18/16Z 18/17Z 18/18Z 18/19Z 18/20Z 18/21Z 18/22Z 18/23Z 19/00Z 19/01Z 19/02Z>>
Type PRVL PRVL PRVL PRVL PRVL PRVL PRVL PRVL PRVL PRVL PRVL PRVL PRVL
VIS >6 >6 >6 >6 >6 >6 >6 >6 >6 >6 >6 >6 >6
CIG -- -- -- -- -- -- -- -- -- -- -- -- --
Cover SCT SCT SCT SCT FEW FEW FEW FEW FEW FEW FEW FEW FEW
FltCat VFR VFR VFR VFR VFR VFR VFR VFR VFR VFR VFR VFR VFR
WX -- -- -- -- -- -- -- -- -- -- -- -- --
WDir 160 160 160 160 290 290 290 290 290 290 290 290 290
WSpd 5 5 5 5 7 7 7 7 7 7 7 7 7
WGst -- -- -- -- -- -- -- -- -- -- -- -- --

Raw TAF
KSLC 172334Z 1800/1906 33006KT P6SM FEW100 SCT120
  FM180200 34012G19KT P6SM -SHRA VCTS SCT080CB BKN100
  FM180500 34010KT P6SM VCSH SCT080 BKN100
  FM180800 16005KT P6SM SCT100 SCT120
  FM181800 29007KT P6SM FEW200


METAR Board
Radar Display
Forecast Discussion

FOR SITUATIONAL AWARENESS. NOT TO BE USED FOR FLIGHT PLANNING PURPOSES.